createdAt,value
2022-09-18T00:00:58.029Z,8.71
2022-09-18T00:03:25.016Z,8.75
2022-09-18T00:05:51.646Z,8.66
2022-09-18T00:08:18.152Z,8.66
2022-09-18T00:10:46.769Z,8.62
2022-09-18T00:13:15.090Z,8.66
2022-09-18T00:15:42.089Z,8.65
2022-09-18T00:18:09.696Z,8.65
2022-09-18T00:20:37.649Z,8.62
2022-09-18T00:23:04.320Z,8.58
2022-09-18T00:25:32.136Z,8.57
2022-09-18T00:27:58.746Z,8.59
2022-09-18T00:30:25.282Z,8.57
2022-09-18T00:32:51.870Z,8.54
2022-09-18T00:35:18.451Z,8.57
2022-09-18T00:37:45.029Z,8.54
2022-09-18T00:40:11.661Z,8.53
2022-09-18T00:42:38.356Z,8.48
2022-09-18T00:45:05.583Z,8.51
2022-09-18T00:47:35.410Z,8.51
2022-09-18T00:50:13.328Z,8.46
2022-09-18T00:52:54.660Z,8.45
2022-09-18T00:55:26.665Z,8.47
2022-09-18T00:57:56.474Z,8.47
2022-09-18T01:00:24.023Z,8.50
2022-09-18T01:02:50.988Z,8.49
2022-09-18T01:05:31.957Z,8.52
2022-09-18T01:08:26.163Z,8.50
2022-09-18T01:11:13.166Z,8.50
2022-09-18T01:14:04.414Z,8.50
2022-09-18T01:16:50.976Z,8.56
2022-09-18T01:19:34.717Z,8.55
2022-09-18T01:22:36.695Z,8.47
2022-09-18T01:25:47.625Z,8.49
2022-09-18T01:28:20.974Z,8.46
2022-09-18T01:30:50.763Z,8.51
2022-09-18T01:33:54.105Z,8.53
2022-09-18T01:36:24.869Z,8.56
2022-09-18T01:39:00.930Z,8.56
2022-09-18T01:41:29.974Z,8.60
2022-09-18T01:44:05.931Z,8.62
2022-09-18T01:46:34.261Z,8.62
2022-09-18T01:49:08.538Z,8.61
2022-09-18T01:52:00.622Z,8.62
2022-09-18T01:54:33.664Z,8.63
2022-09-18T01:57:12.857Z,8.67
2022-09-18T01:59:44.850Z,8.64
2022-09-18T02:02:17.545Z,8.66
2022-09-18T02:04:47.521Z,8.66
2022-09-18T02:07:23.457Z,8.67
2022-09-18T02:09:50.101Z,8.68
2022-09-18T02:12:21.805Z,8.68
2022-09-18T02:14:53.196Z,8.63
2022-09-18T02:17:32.949Z,8.60
2022-09-18T02:20:06.669Z,8.55
2022-09-18T02:22:34.893Z,8.52
2022-09-18T02:25:04.970Z,8.52
2022-09-18T02:27:34.317Z,8.55
2022-09-18T02:30:03.411Z,8.52
2022-09-18T02:32:30.083Z,8.56
2022-09-18T02:34:57.111Z,8.60
2022-09-18T02:37:58.127Z,8.55
2022-09-18T02:40:31.622Z,8.46
2022-09-18T02:43:27.335Z,8.46
2022-09-18T02:46:23.753Z,8.48
2022-09-18T02:49:14.746Z,8.43
2022-09-18T02:51:52.880Z,8.48
2022-09-18T02:54:24.376Z,8.51
2022-09-18T02:56:57.019Z,8.49
2022-09-18T02:59:28.632Z,8.51
2022-09-18T03:01:56.884Z,8.47
2022-09-18T03:04:26.209Z,8.48
2022-09-18T03:06:53.557Z,8.43
2022-09-18T03:09:20.732Z,8.40
2022-09-18T03:11:47.332Z,8.42
2022-09-18T03:14:13.975Z,8.43
2022-09-18T03:16:40.485Z,8.44
2022-09-18T03:19:07.259Z,8.42
2022-09-18T03:21:33.797Z,8.42
2022-09-18T03:24:00.503Z,8.40
2022-09-18T03:26:27.179Z,8.38
2022-09-18T03:28:53.821Z,8.34
2022-09-18T03:31:20.574Z,8.33
2022-09-18T03:33:47.201Z,8.34
2022-09-18T03:36:13.841Z,8.34
2022-09-18T03:38:41.715Z,8.33
2022-09-18T03:41:08.750Z,8.35
2022-09-18T03:43:35.672Z,8.35
2022-09-18T03:46:02.370Z,8.39
2022-09-18T03:48:28.973Z,8.40
2022-09-18T03:50:55.648Z,8.40
2022-09-18T03:53:22.274Z,8.37
2022-09-18T03:55:50.464Z,8.38
2022-09-18T03:58:17.061Z,8.36
2022-09-18T04:00:43.738Z,8.39
2022-09-18T04:03:10.410Z,8.37
2022-09-18T04:05:36.966Z,8.36
2022-09-18T04:08:05.276Z,8.34
2022-09-18T04:10:32.899Z,8.32
2022-09-18T04:12:59.469Z,8.30
2022-09-18T04:15:27.508Z,8.28
2022-09-18T04:17:54.100Z,8.27
2022-09-18T04:20:20.818Z,8.27
2022-09-18T04:22:47.345Z,8.32
2022-09-18T04:25:13.994Z,8.32
2022-09-18T04:27:40.505Z,8.34
2022-09-18T04:30:07.630Z,8.36
2022-09-18T04:32:34.223Z,8.33
2022-09-18T04:35:00.811Z,8.35
2022-09-18T04:37:30.052Z,8.37
2022-09-18T04:39:57.234Z,8.40
2022-09-18T04:42:23.836Z,8.36
2022-09-18T04:44:50.658Z,8.35
2022-09-18T04:47:17.237Z,8.34
2022-09-18T04:49:43.767Z,8.33
2022-09-18T04:52:10.714Z,8.34
2022-09-18T04:54:38.091Z,8.33
2022-09-18T04:57:04.804Z,8.33
2022-09-18T04:59:31.431Z,8.36
2022-09-18T05:01:59.119Z,8.36
2022-09-18T05:04:25.721Z,8.38
2022-09-18T05:06:52.270Z,8.37
2022-09-18T05:09:18.893Z,8.36
2022-09-18T05:11:45.489Z,8.39
2022-09-18T05:14:12.033Z,8.32
2022-09-18T05:16:38.913Z,8.30
2022-09-18T05:19:05.730Z,8.25
2022-09-18T05:21:32.243Z,8.23
2022-09-18T05:23:58.799Z,8.21
2022-09-18T05:26:26.827Z,8.19
2022-09-18T05:28:53.340Z,8.23
2022-09-18T05:31:19.965Z,8.25
2022-09-18T05:33:46.581Z,8.29
2022-09-18T05:36:13.143Z,8.29
2022-09-18T05:38:39.808Z,8.28
2022-09-18T05:41:06.859Z,8.28
2022-09-18T05:43:33.390Z,8.36
2022-09-18T05:46:02.154Z,8.37
2022-09-18T05:48:28.755Z,8.37
2022-09-18T05:50:56.669Z,8.38
2022-09-18T05:53:23.214Z,8.43
2022-09-18T05:55:49.781Z,8.50
2022-09-18T05:58:18.462Z,8.61
2022-09-18T06:00:46.165Z,8.67
2022-09-18T06:03:15.014Z,8.74
2022-09-18T06:05:42.760Z,8.73
2022-09-18T06:08:11.202Z,8.81
2022-09-18T06:10:39.489Z,8.86
2022-09-18T06:13:15.458Z,8.86
2022-09-18T06:15:52.326Z,8.88
2022-09-18T06:18:19.158Z,8.92
2022-09-18T06:20:53.609Z,9.03
2022-09-18T06:23:20.594Z,9.05
2022-09-18T06:25:47.211Z,9.08
2022-09-18T06:28:13.719Z,9.11
2022-09-18T06:30:40.293Z,9.07
2022-09-18T06:33:09.280Z,9.05
2022-09-18T06:35:38.435Z,8.91
2022-09-18T06:38:06.780Z,8.89
2022-09-18T06:40:34.619Z,8.92
2022-09-18T06:43:02.703Z,8.95
2022-09-18T06:45:31.068Z,8.94
2022-09-18T06:48:04.786Z,8.87
2022-09-18T06:50:31.889Z,8.97
2022-09-18T06:53:11.481Z,9.00
2022-09-18T06:55:39.146Z,8.94
2022-09-18T06:58:05.715Z,8.96
2022-09-18T07:00:32.360Z,8.97
2022-09-18T07:03:01.485Z,9.10
2022-09-18T07:05:31.089Z,9.17
2022-09-18T07:07:57.611Z,9.07
2022-09-18T07:10:24.869Z,9.10
2022-09-18T07:12:58.408Z,9.10
2022-09-18T07:15:26.489Z,9.03
2022-09-18T07:17:57.023Z,9.01
2022-09-18T07:20:23.597Z,9.02
2022-09-18T07:23:01.454Z,9.09
2022-09-18T07:25:31.427Z,9.14
2022-09-18T07:28:10.713Z,9.14
2022-09-18T07:30:38.540Z,9.18
2022-09-18T07:33:06.884Z,9.17
2022-09-18T07:35:34.279Z,9.11
2022-09-18T07:38:02.495Z,9.19
2022-09-18T07:40:29.805Z,9.22
2022-09-18T07:43:01.034Z,9.29
2022-09-18T07:45:27.911Z,9.28
2022-09-18T07:47:54.537Z,9.36
2022-09-18T07:50:22.084Z,9.32
2022-09-18T07:52:53.478Z,9.33
2022-09-18T07:55:21.243Z,9.39
2022-09-18T07:57:48.709Z,9.40
2022-09-18T08:00:15.856Z,9.47
2022-09-18T08:02:42.475Z,9.56
2022-09-18T08:05:09.549Z,9.64
2022-09-18T08:07:36.774Z,9.63
2022-09-18T08:10:05.578Z,9.67
2022-09-18T08:12:32.394Z,9.63
2022-09-18T08:14:59.311Z,9.59
2022-09-18T08:17:26.400Z,9.74
2022-09-18T08:19:53.592Z,9.83
2022-09-18T08:22:20.197Z,9.92
2022-09-18T08:24:46.748Z,9.95
2022-09-18T08:27:13.277Z,9.92
2022-09-18T08:29:39.851Z,9.97
2022-09-18T08:32:12.084Z,9.96
2022-09-18T08:34:38.664Z,9.95
2022-09-18T08:37:05.240Z,10.04
2022-09-18T08:39:31.801Z,10.13
2022-09-18T08:42:22.778Z,10.13
2022-09-18T08:45:00.560Z,10.24
2022-09-18T08:47:39.299Z,10.27
2022-09-18T08:50:10.053Z,10.24
2022-09-18T08:52:43.043Z,10.31
2022-09-18T08:55:27.741Z,10.34
2022-09-18T08:57:59.105Z,10.35
2022-09-18T09:00:34.798Z,10.32
2022-09-18T09:03:18.137Z,10.29
2022-09-18T09:06:01.725Z,10.18
2022-09-18T09:09:08.615Z,10.11
2022-09-18T09:11:57.089Z,10.29
2022-09-18T09:14:56.787Z,10.30
2022-09-18T09:17:33.082Z,10.34
2022-09-18T09:20:11.685Z,10.42
2022-09-18T09:22:41.225Z,10.43
2022-09-18T09:25:22.785Z,10.36
2022-09-18T09:28:16.282Z,10.40
2022-09-18T09:30:47.198Z,10.40
2022-09-18T09:33:20.599Z,10.39
2022-09-18T09:35:54.469Z,10.39
2022-09-18T09:39:00.836Z,10.33
2022-09-18T09:41:39.581Z,10.32
2022-09-18T09:44:15.053Z,10.42
2022-09-18T09:46:50.787Z,10.55
2022-09-18T09:49:27.353Z,10.50
2022-09-18T09:51:56.880Z,10.49
2022-09-18T09:54:23.594Z,10.44
2022-09-18T09:57:03.327Z,10.42
2022-09-18T10:00:00.306Z,10.46
2022-09-18T10:02:52.030Z,10.51
2022-09-18T10:05:53.756Z,10.58
2022-09-18T10:08:50.445Z,10.54
2022-09-18T10:11:17.566Z,10.58
2022-09-18T10:13:53.737Z,10.62
2022-09-18T10:16:25.814Z,10.64
2022-09-18T10:18:52.469Z,10.75
2022-09-18T10:21:22.248Z,10.71
2022-09-18T10:23:53.408Z,10.74
2022-09-18T10:26:28.463Z,10.83
2022-09-18T10:28:55.331Z,10.87
2022-09-18T10:31:22.268Z,10.91
2022-09-18T10:33:53.144Z,11.00
2022-09-18T10:36:42.772Z,10.98
2022-09-18T10:39:31.239Z,11.05
2022-09-18T10:42:01.703Z,11.17
2022-09-18T10:44:31.234Z,11.08
2022-09-18T10:46:59.902Z,11.15
2022-09-18T10:49:32.221Z,11.16
2022-09-18T10:52:29.827Z,11.25
2022-09-18T10:55:02.588Z,11.13
2022-09-18T10:57:50.773Z,11.15
2022-09-18T11:00:35.129Z,10.96
2022-09-18T11:03:29.007Z,10.84
2022-09-18T11:06:02.032Z,10.79
2022-09-18T11:08:33.863Z,10.83
2022-09-18T11:11:07.497Z,10.90
2022-09-18T11:13:44.926Z,10.91
2022-09-18T11:16:12.429Z,10.80
2022-09-18T11:18:39.394Z,10.77
2022-09-18T11:21:07.577Z,10.68
2022-09-18T11:23:36.850Z,10.79
2022-09-18T11:26:29.577Z,10.64
2022-09-18T11:28:58.852Z,10.70
2022-09-18T11:31:28.259Z,10.72
2022-09-18T11:33:56.851Z,10.73
2022-09-18T11:36:27.413Z,10.87
2022-09-18T11:38:55.165Z,10.82
2022-09-18T11:41:24.836Z,10.81
2022-09-18T11:44:21.874Z,10.71
2022-09-18T11:47:25.688Z,10.85
2022-09-18T11:50:04.071Z,10.74
2022-09-18T11:52:37.466Z,10.67
2022-09-18T11:55:14.371Z,10.74
2022-09-18T11:57:47.457Z,10.62
2022-09-18T12:00:21.741Z,10.69
2022-09-18T12:03:07.209Z,10.72
2022-09-18T12:05:52.284Z,10.52
2022-09-18T12:08:37.063Z,10.63
2022-09-18T12:11:17.742Z,10.58
2022-09-18T12:13:56.388Z,10.69
2022-09-18T12:16:32.935Z,10.68
2022-09-18T12:19:10.144Z,10.81
2022-09-18T12:21:45.247Z,10.80
2022-09-18T12:24:14.219Z,10.72
2022-09-18T12:27:09.165Z,10.69
2022-09-18T12:29:38.607Z,10.66
2022-09-18T12:32:30.012Z,10.45
2022-09-18T12:35:20.929Z,10.34
2022-09-18T12:38:21.156Z,10.27
2022-09-18T12:41:13.081Z,10.30
2022-09-18T12:44:07.618Z,10.37
2022-09-18T12:46:43.401Z,10.40
2022-09-18T12:49:31.798Z,10.35
2022-09-18T12:52:33.018Z,10.28
2022-09-18T12:55:08.813Z,10.21
2022-09-18T12:57:52.057Z,10.16
2022-09-18T13:00:19.121Z,10.23
2022-09-18T13:02:52.446Z,10.10
2022-09-18T13:05:38.817Z,10.09
2022-09-18T13:08:19.105Z,10.12
2022-09-18T13:10:47.635Z,10.16
2022-09-18T13:13:28.223Z,10.02
2022-09-18T13:16:05.238Z,10.09
2022-09-18T13:18:40.882Z,10.18
2022-09-18T13:21:29.875Z,10.13
2022-09-18T13:23:58.681Z,10.21
2022-09-18T13:26:29.576Z,10.21
2022-09-18T13:28:56.365Z,10.19
2022-09-18T13:31:35.111Z,10.18
2022-09-18T13:34:18.261Z,10.08
2022-09-18T13:36:46.812Z,10.01
2022-09-18T13:39:23.492Z,10.09
2022-09-18T13:41:53.435Z,10.06
2022-09-18T13:44:29.016Z,9.92
2022-09-18T13:46:59.617Z,9.91
2022-09-18T13:49:36.630Z,9.87
2022-09-18T13:52:34.219Z,9.85
2022-09-18T13:55:12.732Z,9.86
2022-09-18T13:57:41.343Z,9.80
2022-09-18T14:00:20.157Z,9.74
2022-09-18T14:02:51.726Z,9.70
2022-09-18T14:05:31.760Z,9.73
2022-09-18T14:08:04.618Z,9.71
2022-09-18T14:10:36.406Z,9.66
2022-09-18T14:13:12.159Z,9.69
2022-09-18T14:15:38.899Z,9.62
2022-09-18T14:18:17.369Z,9.64
2022-09-18T14:20:53.531Z,9.67
2022-09-18T14:23:40.839Z,9.64
2022-09-18T14:26:28.491Z,9.55
2022-09-18T14:29:04.063Z,9.59
2022-09-18T14:31:35.623Z,9.55
2022-09-18T14:34:12.500Z,9.54
2022-09-18T14:36:50.445Z,9.46
2022-09-18T14:39:34.255Z,9.54
2022-09-18T14:42:03.925Z,9.50
2022-09-18T14:44:32.738Z,9.43
2022-09-18T14:47:00.477Z,9.40
2022-09-18T14:49:34.224Z,9.37
2022-09-18T14:52:04.260Z,9.31
2022-09-18T14:54:31.495Z,9.37
2022-09-18T14:57:02.839Z,9.36
2022-09-18T14:59:29.588Z,9.35
2022-09-18T15:02:20.511Z,9.21
2022-09-18T15:04:47.244Z,9.20
2022-09-18T15:07:19.757Z,9.21
2022-09-18T15:09:52.968Z,9.23
2022-09-18T15:12:22.846Z,9.23
2022-09-18T15:14:49.757Z,9.26
2022-09-18T15:17:28.029Z,9.17
2022-09-18T15:20:09.404Z,9.20
2022-09-18T15:22:36.043Z,9.15
2022-09-18T15:25:02.688Z,9.12
2022-09-18T15:27:31.181Z,9.12
2022-09-18T15:30:02.049Z,9.10
2022-09-18T15:32:38.147Z,9.10
2022-09-18T15:35:08.675Z,9.07
2022-09-18T15:37:38.375Z,9.08
2022-09-18T15:40:09.085Z,9.07
2022-09-18T15:42:39.111Z,9.06
2022-09-18T15:45:05.620Z,9.01
2022-09-18T15:47:39.416Z,9.03
2022-09-18T15:50:11.930Z,8.96
2022-09-18T15:52:42.795Z,9.04
2022-09-18T15:55:18.301Z,9.02
2022-09-18T15:57:49.728Z,8.93
2022-09-18T16:00:22.612Z,8.89
2022-09-18T16:02:54.642Z,8.86
2022-09-18T16:05:22.129Z,8.79
2022-09-18T16:07:57.608Z,8.76
2022-09-18T16:10:37.134Z,8.72
2022-09-18T16:13:04.828Z,8.66
2022-09-18T16:15:31.853Z,8.65
2022-09-18T16:18:03.960Z,8.65
2022-09-18T16:20:42.505Z,8.70
2022-09-18T16:23:28.453Z,8.59
2022-09-18T16:26:11.681Z,8.52
2022-09-18T16:28:57.635Z,8.43
2022-09-18T16:31:26.835Z,8.51
2022-09-18T16:34:02.441Z,8.49
2022-09-18T16:36:37.219Z,8.54
2022-09-18T16:39:11.491Z,8.53
2022-09-18T16:41:38.185Z,8.47
2022-09-18T16:44:06.523Z,8.50
2022-09-18T16:47:00.459Z,8.49
2022-09-18T16:49:32.802Z,8.47
2022-09-18T16:51:59.397Z,8.48
2022-09-18T16:54:26.156Z,8.50
2022-09-18T16:57:05.906Z,8.49
2022-09-18T16:59:33.514Z,8.46
2022-09-18T17:02:05.167Z,8.41
2022-09-18T17:04:32.803Z,8.43
2022-09-18T17:06:59.551Z,8.42
2022-09-18T17:09:26.655Z,8.36
2022-09-18T17:11:54.442Z,8.38
2022-09-18T17:14:22.212Z,8.42
2022-09-18T17:16:48.846Z,8.42
2022-09-18T17:19:15.742Z,8.41
2022-09-18T17:21:42.705Z,8.38
2022-09-18T17:24:10.176Z,8.39
2022-09-18T17:26:38.114Z,8.39
2022-09-18T17:29:05.014Z,8.37
2022-09-18T17:31:31.679Z,8.40
2022-09-18T17:33:58.308Z,8.36
2022-09-18T17:36:25.131Z,8.35
2022-09-18T17:38:51.984Z,8.37
2022-09-18T17:41:19.739Z,8.32
2022-09-18T17:43:52.042Z,8.31
2022-09-18T17:46:18.733Z,8.31
2022-09-18T17:48:46.084Z,8.33
2022-09-18T17:51:16.682Z,8.29
2022-09-18T17:53:44.696Z,8.30
2022-09-18T17:56:12.808Z,8.30
2022-09-18T17:58:41.388Z,8.27
2022-09-18T18:01:15.996Z,8.30
2022-09-18T18:03:42.914Z,8.28
2022-09-18T18:06:11.109Z,8.30
2022-09-18T18:08:37.931Z,8.30
2022-09-18T18:11:10.863Z,8.31
2022-09-18T18:13:42.495Z,8.28
2022-09-18T18:16:15.031Z,8.26
2022-09-18T18:18:43.277Z,8.27
2022-09-18T18:21:10.889Z,8.29
2022-09-18T18:23:38.524Z,8.24
2022-09-18T18:26:07.207Z,8.26
2022-09-18T18:28:35.131Z,8.27
2022-09-18T18:31:07.651Z,8.21
2022-09-18T18:33:36.025Z,8.25
2022-09-18T18:36:19.860Z,8.19
2022-09-18T18:38:49.120Z,8.20
2022-09-18T18:41:17.111Z,8.17
2022-09-18T18:43:44.750Z,8.17
2022-09-18T18:46:14.029Z,8.16
2022-09-18T18:48:44.168Z,8.17
2022-09-18T18:51:15.961Z,8.15
2022-09-18T18:53:43.711Z,8.15
2022-09-18T18:56:16.198Z,8.17
2022-09-18T18:58:44.168Z,8.13
2022-09-18T19:01:16.390Z,8.13
2022-09-18T19:03:52.684Z,8.07
2022-09-18T19:06:20.344Z,8.03
2022-09-18T19:08:47.815Z,8.07
2022-09-18T19:11:17.198Z,8.05
2022-09-18T19:13:44.711Z,8.05
2022-09-18T19:16:13.031Z,8.00
2022-09-18T19:18:40.259Z,7.97
2022-09-18T19:21:07.542Z,7.95
2022-09-18T19:23:35.512Z,8.01
2022-09-18T19:26:02.731Z,7.96
2022-09-18T19:28:30.500Z,7.95
2022-09-18T19:31:04.417Z,7.88
2022-09-18T19:33:32.401Z,7.87
2022-09-18T19:36:06.838Z,7.86
2022-09-18T19:38:36.353Z,7.83
2022-09-18T19:41:20.624Z,7.77
2022-09-18T19:43:47.559Z,7.71
2022-09-18T19:46:24.145Z,7.76
2022-09-18T19:48:51.472Z,7.73
2022-09-18T19:51:18.152Z,7.74
2022-09-18T19:53:44.926Z,7.65
2022-09-18T19:56:27.466Z,7.64
2022-09-18T19:58:58.228Z,7.66
2022-09-18T20:01:24.836Z,7.65
2022-09-18T20:03:54.967Z,7.63
2022-09-18T20:06:23.004Z,7.55
2022-09-18T20:08:50.078Z,7.61
2022-09-18T20:11:16.730Z,7.60
2022-09-18T20:13:43.325Z,7.59
2022-09-18T20:16:10.885Z,7.60
2022-09-18T20:18:38.334Z,7.59
2022-09-18T20:21:10.143Z,7.59
2022-09-18T20:23:37.880Z,7.61
2022-09-18T20:26:09.425Z,7.59
2022-09-18T20:28:36.868Z,7.60
2022-09-18T20:31:08.707Z,7.61
2022-09-18T20:33:36.222Z,7.59
2022-09-18T20:36:03.131Z,7.58
2022-09-18T20:38:31.241Z,7.58
2022-09-18T20:41:06.553Z,7.62
2022-09-18T20:43:34.160Z,7.63
2022-09-18T20:46:06.713Z,7.66
2022-09-18T20:48:35.751Z,7.68
2022-09-18T20:51:09.284Z,7.62
2022-09-18T20:53:41.792Z,7.64
2022-09-18T20:56:10.776Z,7.64
2022-09-18T20:58:42.130Z,7.67
2022-09-18T21:01:11.381Z,7.68
2022-09-18T21:03:40.746Z,7.68
2022-09-18T21:06:23.554Z,7.68
2022-09-18T21:08:53.348Z,7.65
2022-09-18T21:11:23.575Z,7.70
2022-09-18T21:13:55.805Z,7.68
2022-09-18T21:16:26.006Z,7.72
2022-09-18T21:18:56.308Z,7.70
2022-09-18T21:21:24.835Z,7.72
2022-09-18T21:23:54.438Z,7.67
2022-09-18T21:26:25.682Z,7.66
2022-09-18T21:28:55.439Z,7.58
2022-09-18T21:31:23.039Z,7.56
2022-09-18T21:33:53.059Z,7.59
2022-09-18T21:36:24.465Z,7.51
2022-09-18T21:38:52.599Z,7.55
2022-09-18T21:41:21.406Z,7.53
2022-09-18T21:43:50.681Z,7.52
2022-09-18T21:46:19.448Z,7.54
2022-09-18T21:48:47.663Z,7.55
